sensor_id;sensor_type;location;lat;lon;timestamp;pressure;altitude;pressure_sealevel;temperature;humidity
28606;BME280;46498;49.968;7.754;2023-02-21T00:04:44;97499.00;;;6.74;100.00
28606;BME280;46498;49.968;7.754;2023-02-21T00:10:05;97502.00;;;6.65;100.00
28606;BME280;46498;49.968;7.754;2023-02-21T00:15:24;97499.00;;;6.64;100.00
28606;BME280;46498;49.968;7.754;2023-02-21T00:20:43;97492.00;;;6.63;100.00
28606;BME280;46498;49.968;7.754;2023-02-21T00:26:02;97494.00;;;6.64;100.00
28606;BME280;46498;49.968;7.754;2023-02-21T00:31:21;97488.00;;;6.63;100.00
28606;BME280;46498;49.968;7.754;2023-02-21T00:36:41;97501.00;;;6.63;100.00
28606;BME280;46498;49.968;7.754;2023-02-21T00:42:00;97501.00;;;6.58;100.00
28606;BME280;46498;49.968;7.754;2023-02-21T00:47:20;97494.00;;;6.59;100.00
28606;BME280;46498;49.968;7.754;2023-02-21T00:52:39;97499.00;;;6.58;100.00
28606;BME280;46498;49.968;7.754;2023-02-21T00:57:58;97496.00;;;6.55;100.00
28606;BME280;46498;49.968;7.754;2023-02-21T01:03:17;97493.00;;;6.49;100.00
28606;BME280;46498;49.968;7.754;2023-02-21T01:08:43;97483.00;;;6.41;100.00
28606;BME280;46498;49.968;7.754;2023-02-21T01:14:06;97484.00;;;6.43;100.00
28606;BME280;46498;49.968;7.754;2023-02-21T01:19:28;97478.00;;;6.52;100.00
28606;BME280;46498;49.968;7.754;2023-02-21T01:24:49;97472.00;;;6.47;100.00
28606;BME280;46498;49.968;7.754;2023-02-21T01:30:08;97475.00;;;6.43;100.00
28606;BME280;46498;49.968;7.754;2023-02-21T01:35:28;97475.00;;;6.43;100.00
28606;BME280;46498;49.968;7.754;2023-02-21T01:40:47;97470.00;;;6.38;100.00
28606;BME280;46498;49.968;7.754;2023-02-21T01:46:11;97471.00;;;6.40;100.00
28606;BME280;46498;49.968;7.754;2023-02-21T01:51:34;97456.00;;;6.43;100.00
28606;BME280;46498;49.968;7.754;2023-02-21T01:56:55;97445.00;;;6.33;100.00
28606;BME280;46498;49.968;7.754;2023-02-21T02:02:26;97443.00;;;6.31;100.00
28606;BME280;46498;49.968;7.754;2023-02-21T02:07:47;97433.00;;;6.32;100.00
28606;BME280;46498;49.968;7.754;2023-02-21T02:13:48;97432.00;;;6.21;100.00
28606;BME280;46498;49.968;7.754;2023-02-21T02:37:17;97442.00;;;6.37;100.00
28606;BME280;46498;49.968;7.754;2023-02-21T02:42:35;97437.00;;;6.39;100.00
28606;BME280;46498;49.968;7.754;2023-02-21T02:47:39;97443.00;;;6.28;100.00
28606;BME280;46498;49.968;7.754;2023-02-21T02:52:52;97448.00;;;6.28;100.00
28606;BME280;46498;49.968;7.754;2023-02-21T02:57:56;97443.00;;;6.35;100.00
28606;BME280;46498;49.968;7.754;2023-02-21T03:14:17;97448.00;;;6.36;100.00
28606;BME280;46498;49.968;7.754;2023-02-21T03:19:26;97446.00;;;6.19;100.00
28606;BME280;46498;49.968;7.754;2023-02-21T03:24:28;97443.00;;;6.04;100.00
28606;BME280;46498;49.968;7.754;2023-02-21T03:29:31;97448.00;;;5.91;100.00
28606;BME280;46498;49.968;7.754;2023-02-21T03:34:33;97440.00;;;5.95;100.00
28606;BME280;46498;49.968;7.754;2023-02-21T03:39:34;97445.00;;;5.88;100.00
28606;BME280;46498;49.968;7.754;2023-02-21T03:44:35;97451.00;;;5.92;100.00
28606;BME280;46498;49.968;7.754;2023-02-21T03:49:36;97447.00;;;5.89;100.00
28606;BME280;46498;49.968;7.754;2023-02-21T03:54:38;97438.00;;;5.97;100.00
28606;BME280;46498;49.968;7.754;2023-02-21T03:59:40;97440.00;;;5.84;100.00
28606;BME280;46498;49.968;7.754;2023-02-21T04:04:41;97431.00;;;5.77;100.00
28606;BME280;46498;49.968;7.754;2023-02-21T04:09:47;97425.00;;;5.75;100.00
28606;BME280;46498;49.968;7.754;2023-02-21T04:14:53;97430.00;;;5.68;100.00
28606;BME280;46498;49.968;7.754;2023-02-21T04:19:56;97432.00;;;5.62;100.00
28606;BME280;46498;49.968;7.754;2023-02-21T04:24:58;97428.00;;;5.66;100.00
28606;BME280;46498;49.968;7.754;2023-02-21T04:30:00;97431.00;;;5.68;100.00
28606;BME280;46498;49.968;7.754;2023-02-21T04:35:01;97428.00;;;5.65;100.00
28606;BME280;46498;49.968;7.754;2023-02-21T04:40:03;97430.00;;;5.74;100.00
28606;BME280;46498;49.968;7.754;2023-02-21T04:45:08;97435.00;;;5.76;100.00
28606;BME280;46498;49.968;7.754;2023-02-21T04:50:10;97431.00;;;5.86;100.00
28606;BME280;46498;49.968;7.754;2023-02-21T04:55:11;97425.00;;;5.97;100.00
28606;BME280;46498;49.968;7.754;2023-02-21T05:00:12;97421.00;;;5.74;100.00
28606;BME280;46498;49.968;7.754;2023-02-21T05:05:13;97420.00;;;5.67;100.00
28606;BME280;46498;49.968;7.754;2023-02-21T05:10:17;97408.00;;;5.68;100.00
28606;BME280;46498;49.968;7.754;2023-02-21T05:15:18;97419.00;;;5.58;100.00
28606;BME280;46498;49.968;7.754;2023-02-21T05:20:19;97418.00;;;5.60;100.00
28606;BME280;46498;49.968;7.754;2023-02-21T05:25:22;97414.00;;;5.56;100.00
28606;BME280;46498;49.968;7.754;2023-02-21T05:30:23;97416.00;;;5.62;100.00
28606;BME280;46498;49.968;7.754;2023-02-21T05:35:24;97410.00;;;5.48;100.00
28606;BME280;46498;49.968;7.754;2023-02-21T05:40:24;97411.00;;;5.35;100.00
28606;BME280;46498;49.968;7.754;2023-02-21T05:45:25;97418.00;;;5.17;100.00
28606;BME280;46498;49.968;7.754;2023-02-21T05:50:29;97423.00;;;5.11;100.00
28606;BME280;46498;49.968;7.754;2023-02-21T05:55:30;97411.00;;;4.97;100.00
28606;BME280;46498;49.968;7.754;2023-02-21T06:00:31;97426.00;;;4.86;100.00
28606;BME280;46498;49.968;7.754;2023-02-21T06:05:32;97417.00;;;4.82;100.00
28606;BME280;46498;49.968;7.754;2023-02-21T06:10:32;97426.00;;;4.81;100.00
28606;BME280;46498;49.968;7.754;2023-02-21T06:15:33;97430.00;;;4.87;100.00
28606;BME280;46498;49.968;7.754;2023-02-21T06:20:34;97435.00;;;4.90;100.00
28606;BME280;46498;49.968;7.754;2023-02-21T06:25:35;97429.00;;;4.81;100.00
28606;BME280;46498;49.968;7.754;2023-02-21T06:30:36;97423.00;;;4.75;100.00
28606;BME280;46498;49.968;7.754;2023-02-21T06:35:37;97426.00;;;4.76;100.00
28606;BME280;46498;49.968;7.754;2023-02-21T06:40:37;97416.00;;;4.71;100.00
28606;BME280;46498;49.968;7.754;2023-02-21T06:45:38;97422.00;;;4.75;100.00
28606;BME280;46498;49.968;7.754;2023-02-21T06:50:39;97422.00;;;4.80;100.00
28606;BME280;46498;49.968;7.754;2023-02-21T06:55:40;97421.00;;;5.05;100.00
28606;BME280;46498;49.968;7.754;2023-02-21T07:00:41;97420.00;;;5.34;100.00
28606;BME280;46498;49.968;7.754;2023-02-21T07:05:42;97420.00;;;5.63;100.00
28606;BME280;46498;49.968;7.754;2023-02-21T07:10:43;97427.00;;;5.76;100.00
28606;BME280;46498;49.968;7.754;2023-02-21T07:15:44;97426.00;;;5.79;100.00
28606;BME280;46498;49.968;7.754;2023-02-21T07:20:45;97429.00;;;5.84;100.00
28606;BME280;46498;49.968;7.754;2023-02-21T07:25:46;97430.00;;;5.99;100.00
28606;BME280;46498;49.968;7.754;2023-02-21T07:30:47;97424.00;;;6.26;100.00
28606;BME280;46498;49.968;7.754;2023-02-21T07:35:48;97424.00;;;6.54;100.00
28606;BME280;46498;49.968;7.754;2023-02-21T07:40:49;97425.00;;;6.80;100.00
28606;BME280;46498;49.968;7.754;2023-02-21T07:45:50;97426.00;;;7.05;100.00
28606;BME280;46498;49.968;7.754;2023-02-21T07:50:51;97427.00;;;7.37;100.00
28606;BME280;46498;49.968;7.754;2023-02-21T07:55:52;97433.00;;;7.34;100.00
28606;BME280;46498;49.968;7.754;2023-02-21T08:00:53;97426.00;;;7.52;100.00
28606;BME280;46498;49.968;7.754;2023-02-21T08:05:55;97418.00;;;7.57;100.00
28606;BME280;46498;49.968;7.754;2023-02-21T08:10:55;97408.00;;;7.48;100.00
28606;BME280;46498;49.968;7.754;2023-02-21T08:15:56;97416.00;;;7.61;100.00
28606;BME280;46498;49.968;7.754;2023-02-21T08:20:58;97422.00;;;7.96;100.00
28606;BME280;46498;49.968;7.754;2023-02-21T08:25:59;97417.00;;;7.98;100.00
28606;BME280;46498;49.968;7.754;2023-02-21T08:30:59;97425.00;;;8.22;100.00
28606;BME280;46498;49.968;7.754;2023-02-21T08:36:00;97426.00;;;8.18;100.00
28606;BME280;46498;49.968;7.754;2023-02-21T08:41:01;97420.00;;;8.65;100.00
28606;BME280;46498;49.968;7.754;2023-02-21T08:46:04;97410.00;;;8.93;100.00
28606;BME280;46498;49.968;7.754;2023-02-21T08:51:05;97406.00;;;9.07;100.00
28606;BME280;46498;49.968;7.754;2023-02-21T08:56:06;97408.00;;;9.35;98.86
28606;BME280;46498;49.968;7.754;2023-02-21T09:01:06;97413.00;;;9.68;96.75
28606;BME280;46498;49.968;7.754;2023-02-21T09:06:08;97411.00;;;9.49;95.64
28606;BME280;46498;49.968;7.754;2023-02-21T09:11:09;97414.00;;;9.62;91.88
28606;BME280;46498;49.968;7.754;2023-02-21T09:16:09;97417.00;;;9.81;89.82
28606;BME280;46498;49.968;7.754;2023-02-21T09:21:10;97412.00;;;9.74;90.29
28606;BME280;46498;49.968;7.754;2023-02-21T09:26:11;97406.00;;;10.30;88.63
28606;BME280;46498;49.968;7.754;2023-02-21T09:31:12;97408.00;;;10.33;88.33
28606;BME280;46498;49.968;7.754;2023-02-21T09:36:14;97408.00;;;10.60;86.81
28606;BME280;46498;49.968;7.754;2023-02-21T09:41:15;97400.00;;;11.11;86.16
28606;BME280;46498;49.968;7.754;2023-02-21T09:46:41;97395.00;;;11.64;80.90
28606;BME280;46498;49.968;7.754;2023-02-21T09:51:43;97396.00;;;11.93;78.52
28606;BME280;46498;49.968;7.754;2023-02-21T09:56:45;97394.00;;;12.39;76.75
28606;BME280;46498;49.968;7.754;2023-02-21T10:02:02;97397.00;;;12.42;76.56
28606;BME280;46498;49.968;7.754;2023-02-21T10:07:33;97398.00;;;13.15;73.60
28606;BME280;46498;49.968;7.754;2023-02-21T10:13:19;97392.00;;;12.97;76.93
28606;BME280;46498;49.968;7.754;2023-02-21T10:19:25;97397.00;;;13.11;71.79
28606;BME280;46498;49.968;7.754;2023-02-21T10:24:30;97402.00;;;13.62;68.94
28606;BME280;46498;49.968;7.754;2023-02-21T10:29:51;97398.00;;;13.33;75.07
28606;BME280;46498;49.968;7.754;2023-02-21T10:34:56;97404.00;;;13.72;70.97
28606;BME280;46498;49.968;7.754;2023-02-21T10:40:00;97394.00;;;13.99;69.44
28606;BME280;46498;49.968;7.754;2023-02-21T10:45:06;97393.00;;;13.14;73.02
28606;BME280;46498;49.968;7.754;2023-02-21T10:50:09;97403.00;;;13.31;72.95
28606;BME280;46498;49.968;7.754;2023-02-21T10:55:18;97393.00;;;14.00;71.32
28606;BME280;46498;49.968;7.754;2023-02-21T11:00:43;97390.00;;;14.38;68.23
28606;BME280;46498;49.968;7.754;2023-02-21T11:05:49;97385.00;;;13.83;70.97
28606;BME280;46498;49.968;7.754;2023-02-21T11:10:54;97378.00;;;14.42;71.43
28606;BME280;46498;49.968;7.754;2023-02-21T11:16:16;97368.00;;;13.49;75.94
28606;BME280;46498;49.968;7.754;2023-02-21T11:21:18;97372.00;;;14.45;69.59
28606;BME280;46498;49.968;7.754;2023-02-21T11:26:19;97366.00;;;14.20;71.02
28606;BME280;46498;49.968;7.754;2023-02-21T11:31:28;97364.00;;;13.99;70.52
28606;BME280;46498;49.968;7.754;2023-02-21T11:36:36;97350.00;;;14.27;71.42
28606;BME280;46498;49.968;7.754;2023-02-21T11:48:05;97344.00;;;14.28;71.01
28606;BME280;46498;49.968;7.754;2023-02-21T11:53:35;97326.00;;;13.84;69.69
28606;BME280;46498;49.968;7.754;2023-02-21T11:58:46;97326.00;;;14.04;71.09
28606;BME280;46498;49.968;7.754;2023-02-21T12:04:34;97328.00;;;14.46;71.19
28606;BME280;46498;49.968;7.754;2023-02-21T12:09:57;97320.00;;;14.19;71.35
28606;BME280;46498;49.968;7.754;2023-02-21T12:22:02;97315.00;;;14.06;69.93
28606;BME280;46498;49.968;7.754;2023-02-21T12:27:31;97314.00;;;13.98;70.25
28606;BME280;46498;49.968;7.754;2023-02-21T12:32:55;97303.00;;;14.02;72.91
28606;BME280;46498;49.968;7.754;2023-02-21T12:38:13;97293.00;;;14.17;71.81
28606;BME280;46498;49.968;7.754;2023-02-21T12:45:34;97287.00;;;13.44;71.85
28606;BME280;46498;49.968;7.754;2023-02-21T12:50:47;97288.00;;;13.59;72.23
28606;BME280;46498;49.968;7.754;2023-02-21T13:04:53;97271.00;;;13.76;68.42
28606;BME280;46498;49.968;7.754;2023-02-21T13:10:04;97268.00;;;13.87;67.37
28606;BME280;46498;49.968;7.754;2023-02-21T13:15:21;97253.00;;;14.03;64.92
28606;BME280;46498;49.968;7.754;2023-02-21T13:20:26;97252.00;;;14.49;64.34
28606;BME280;46498;49.968;7.754;2023-02-21T13:25:51;97244.00;;;14.24;64.01
28606;BME280;46498;49.968;7.754;2023-02-21T13:31:00;97242.00;;;14.62;63.46
28606;BME280;46498;49.968;7.754;2023-02-21T13:36:15;97232.00;;;14.57;64.35
28606;BME280;46498;49.968;7.754;2023-02-21T13:41:24;97226.00;;;14.48;64.95
28606;BME280;46498;49.968;7.754;2023-02-21T13:47:14;97217.00;;;13.98;66.38
28606;BME280;46498;49.968;7.754;2023-02-21T13:52:36;97208.00;;;14.13;66.88
28606;BME280;46498;49.968;7.754;2023-02-21T13:58:22;97203.00;;;14.66;63.05
28606;BME280;46498;49.968;7.754;2023-02-21T14:03:30;97201.00;;;15.05;63.42
28606;BME280;46498;49.968;7.754;2023-02-21T14:08:46;97207.00;;;15.72;60.39
28606;BME280;46498;49.968;7.754;2023-02-21T14:13:54;97206.00;;;15.13;60.63
28606;BME280;46498;49.968;7.754;2023-02-21T14:19:02;97198.00;;;14.88;61.66
28606;BME280;46498;49.968;7.754;2023-02-21T14:24:15;97195.00;;;15.21;60.84
28606;BME280;46498;49.968;7.754;2023-02-21T14:32:49;97196.00;;;15.51;59.07
28606;BME280;46498;49.968;7.754;2023-02-21T14:37:57;97187.00;;;15.13;61.54
28606;BME280;46498;49.968;7.754;2023-02-21T14:46:19;97193.00;;;15.59;58.55
28606;BME280;46498;49.968;7.754;2023-02-21T14:58:28;97181.00;;;15.08;59.25
28606;BME280;46498;49.968;7.754;2023-02-21T15:03:45;97166.00;;;15.14;59.92
28606;BME280;46498;49.968;7.754;2023-02-21T15:08:50;97164.00;;;14.66;61.60
28606;BME280;46498;49.968;7.754;2023-02-21T15:14:40;97164.00;;;14.81;62.66
28606;BME280;46498;49.968;7.754;2023-02-21T15:19:46;97163.00;;;14.62;63.70
28606;BME280;46498;49.968;7.754;2023-02-21T15:25:54;97165.00;;;14.58;66.11
28606;BME280;46498;49.968;7.754;2023-02-21T15:31:05;97161.00;;;14.36;65.16
28606;BME280;46498;49.968;7.754;2023-02-21T15:36:21;97151.00;;;14.30;65.48
28606;BME280;46498;49.968;7.754;2023-02-21T15:41:42;97145.00;;;14.38;66.48
28606;BME280;46498;49.968;7.754;2023-02-21T15:47:02;97145.00;;;14.34;66.30
28606;BME280;46498;49.968;7.754;2023-02-21T15:52:04;97143.00;;;13.79;69.44
28606;BME280;46498;49.968;7.754;2023-02-21T15:57:23;97136.00;;;13.58;71.60
28606;BME280;46498;49.968;7.754;2023-02-21T16:02:27;97132.00;;;13.45;73.18
28606;BME280;46498;49.968;7.754;2023-02-21T16:07:35;97131.00;;;13.28;74.82
28606;BME280;46498;49.968;7.754;2023-02-21T16:12:44;97127.00;;;13.13;76.82
28606;BME280;46498;49.968;7.754;2023-02-21T16:17:55;97121.00;;;12.83;77.30
28606;BME280;46498;49.968;7.754;2023-02-21T16:23:23;97124.00;;;12.85;76.70
28606;BME280;46498;49.968;7.754;2023-02-21T16:28:25;97118.00;;;12.49;78.90
28606;BME280;46498;49.968;7.754;2023-02-21T16:33:27;97116.00;;;12.48;78.61
28606;BME280;46498;49.968;7.754;2023-02-21T16:38:28;97124.00;;;12.61;80.03
28606;BME280;46498;49.968;7.754;2023-02-21T16:43:29;97129.00;;;12.53;78.65
28606;BME280;46498;49.968;7.754;2023-02-21T16:48:30;97130.00;;;12.36;79.86
28606;BME280;46498;49.968;7.754;2023-02-21T16:53:34;97127.00;;;12.23;81.06
28606;BME280;46498;49.968;7.754;2023-02-21T16:58:38;97122.00;;;11.92;82.28
28606;BME280;46498;49.968;7.754;2023-02-21T17:03:40;97121.00;;;11.60;83.90
28606;BME280;46498;49.968;7.754;2023-02-21T17:08:41;97125.00;;;11.40;85.11
28606;BME280;46498;49.968;7.754;2023-02-21T17:13:42;97111.00;;;11.15;85.92
28606;BME280;46498;49.968;7.754;2023-02-21T17:18:44;97121.00;;;10.93;86.46
28606;BME280;46498;49.968;7.754;2023-02-21T17:23:45;97120.00;;;10.65;88.24
28606;BME280;46498;49.968;7.754;2023-02-21T17:28:46;97121.00;;;10.43;90.02
28606;BME280;46498;49.968;7.754;2023-02-21T17:33:47;97122.00;;;10.21;91.98
28606;BME280;46498;49.968;7.754;2023-02-21T17:38:48;97131.00;;;10.18;92.66
28606;BME280;46498;49.968;7.754;2023-02-21T17:43:49;97129.00;;;10.09;93.25
28606;BME280;46498;49.968;7.754;2023-02-21T17:48:50;97120.00;;;9.84;93.81
28606;BME280;46498;49.968;7.754;2023-02-21T17:53:51;97114.00;;;9.72;95.83
28606;BME280;46498;49.968;7.754;2023-02-21T17:58:53;97117.00;;;9.77;94.64
28606;BME280;46498;49.968;7.754;2023-02-21T18:03:54;97123.00;;;9.51;95.33
28606;BME280;46498;49.968;7.754;2023-02-21T18:08:56;97124.00;;;9.50;96.04
28606;BME280;46498;49.968;7.754;2023-02-21T18:13:56;97129.00;;;9.37;97.62
28606;BME280;46498;49.968;7.754;2023-02-21T18:18:57;97124.00;;;9.24;98.40
28606;BME280;46498;49.968;7.754;2023-02-21T18:23:58;97127.00;;;9.05;99.68
28606;BME280;46498;49.968;7.754;2023-02-21T18:28:59;97112.00;;;8.88;99.56
28606;BME280;46498;49.968;7.754;2023-02-21T18:34:01;97123.00;;;8.92;99.36
28606;BME280;46498;49.968;7.754;2023-02-21T18:39:02;97114.00;;;8.77;100.00
28606;BME280;46498;49.968;7.754;2023-02-21T18:44:03;97120.00;;;8.71;100.00
28606;BME280;46498;49.968;7.754;2023-02-21T18:49:04;97124.00;;;8.65;100.00
28606;BME280;46498;49.968;7.754;2023-02-21T18:54:05;97123.00;;;8.64;100.00
28606;BME280;46498;49.968;7.754;2023-02-21T18:59:06;97112.00;;;8.57;100.00
28606;BME280;46498;49.968;7.754;2023-02-21T19:04:07;97113.00;;;8.37;100.00
28606;BME280;46498;49.968;7.754;2023-02-21T19:09:08;97113.00;;;8.35;100.00
28606;BME280;46498;49.968;7.754;2023-02-21T19:14:09;97109.00;;;8.20;100.00
28606;BME280;46498;49.968;7.754;2023-02-21T19:19:10;97098.00;;;8.13;100.00
28606;BME280;46498;49.968;7.754;2023-02-21T19:24:11;97102.00;;;8.09;100.00
28606;BME280;46498;49.968;7.754;2023-02-21T19:29:12;97101.00;;;7.87;100.00
28606;BME280;46498;49.968;7.754;2023-02-21T19:34:13;97098.00;;;7.89;100.00
28606;BME280;46498;49.968;7.754;2023-02-21T19:39:14;97106.00;;;8.01;100.00
28606;BME280;46498;49.968;7.754;2023-02-21T19:44:15;97101.00;;;7.94;100.00
28606;BME280;46498;49.968;7.754;2023-02-21T19:49:16;97100.00;;;8.01;100.00
28606;BME280;46498;49.968;7.754;2023-02-21T19:54:20;97097.00;;;7.95;100.00
28606;BME280;46498;49.968;7.754;2023-02-21T19:59:21;97095.00;;;7.95;100.00
28606;BME280;46498;49.968;7.754;2023-02-21T20:04:22;97102.00;;;7.91;100.00
28606;BME280;46498;49.968;7.754;2023-02-21T20:09:23;97099.00;;;7.72;100.00
28606;BME280;46498;49.968;7.754;2023-02-21T20:14:25;97098.00;;;7.70;100.00
28606;BME280;46498;49.968;7.754;2023-02-21T20:19:26;97101.00;;;7.66;100.00
28606;BME280;46498;49.968;7.754;2023-02-21T20:24:29;97099.00;;;7.54;100.00
28606;BME280;46498;49.968;7.754;2023-02-21T20:29:30;97101.00;;;7.42;100.00
28606;BME280;46498;49.968;7.754;2023-02-21T20:34:34;97102.00;;;7.39;100.00
28606;BME280;46498;49.968;7.754;2023-02-21T20:39:37;97106.00;;;7.29;100.00
28606;BME280;46498;49.968;7.754;2023-02-21T20:44:38;97105.00;;;7.22;100.00
28606;BME280;46498;49.968;7.754;2023-02-21T20:49:44;97099.00;;;7.22;100.00
28606;BME280;46498;49.968;7.754;2023-02-21T20:54:46;97093.00;;;7.24;100.00
28606;BME280;46498;49.968;7.754;2023-02-21T20:59:47;97101.00;;;7.12;100.00
28606;BME280;46498;49.968;7.754;2023-02-21T21:04:47;97095.00;;;7.07;100.00
28606;BME280;46498;49.968;7.754;2023-02-21T21:09:48;97092.00;;;7.01;100.00
28606;BME280;46498;49.968;7.754;2023-02-21T21:14:50;97084.00;;;7.05;100.00
28606;BME280;46498;49.968;7.754;2023-02-21T21:19:53;97083.00;;;7.01;100.00
28606;BME280;46498;49.968;7.754;2023-02-21T21:24:54;97085.00;;;6.95;100.00
28606;BME280;46498;49.968;7.754;2023-02-21T21:29:55;97094.00;;;6.84;100.00
28606;BME280;46498;49.968;7.754;2023-02-21T21:34:56;97082.00;;;7.05;100.00
28606;BME280;46498;49.968;7.754;2023-02-21T21:39:58;97089.00;;;6.99;100.00
28606;BME280;46498;49.968;7.754;2023-02-21T21:45:06;97085.00;;;6.98;100.00
28606;BME280;46498;49.968;7.754;2023-02-21T21:50:09;97084.00;;;6.89;100.00
28606;BME280;46498;49.968;7.754;2023-02-21T21:55:18;97084.00;;;7.03;100.00
28606;BME280;46498;49.968;7.754;2023-02-21T22:00:28;97072.00;;;6.99;100.00
28606;BME280;46498;49.968;7.754;2023-02-21T22:05:30;97066.00;;;6.80;100.00
28606;BME280;46498;49.968;7.754;2023-02-21T22:10:31;97064.00;;;6.85;100.00
28606;BME280;46498;49.968;7.754;2023-02-21T22:15:32;97062.00;;;6.89;100.00
28606;BME280;46498;49.968;7.754;2023-02-21T22:20:33;97055.00;;;6.74;100.00
28606;BME280;46498;49.968;7.754;2023-02-21T22:25:35;97049.00;;;6.74;100.00
28606;BME280;46498;49.968;7.754;2023-02-21T22:30:37;97043.00;;;6.61;100.00
28606;BME280;46498;49.968;7.754;2023-02-21T22:35:39;97044.00;;;6.60;100.00
28606;BME280;46498;49.968;7.754;2023-02-21T22:40:41;97039.00;;;6.59;100.00
28606;BME280;46498;49.968;7.754;2023-02-21T22:45:42;97027.00;;;6.56;100.00
28606;BME280;46498;49.968;7.754;2023-02-21T22:50:50;97024.00;;;6.49;100.00
28606;BME280;46498;49.968;7.754;2023-02-21T22:55:52;97025.00;;;6.46;100.00
28606;BME280;46498;49.968;7.754;2023-02-21T23:00:53;97011.00;;;6.50;100.00
28606;BME280;46498;49.968;7.754;2023-02-21T23:05:54;97019.00;;;6.51;100.00
28606;BME280;46498;49.968;7.754;2023-02-21T23:11:00;97013.00;;;6.40;100.00
28606;BME280;46498;49.968;7.754;2023-02-21T23:16:01;97016.00;;;6.35;100.00
28606;BME280;46498;49.968;7.754;2023-02-21T23:21:02;97016.00;;;6.33;100.00
28606;BME280;46498;49.968;7.754;2023-02-21T23:26:04;97016.00;;;6.23;100.00
28606;BME280;46498;49.968;7.754;2023-02-21T23:31:08;97007.00;;;6.12;100.00
28606;BME280;46498;49.968;7.754;2023-02-21T23:36:11;97003.00;;;6.24;100.00
28606;BME280;46498;49.968;7.754;2023-02-21T23:41:13;97001.00;;;6.26;100.00
28606;BME280;46498;49.968;7.754;2023-02-21T23:46:18;97002.00;;;6.25;100.00
28606;BME280;46498;49.968;7.754;2023-02-21T23:51:19;96998.00;;;6.19;100.00
28606;BME280;46498;49.968;7.754;2023-02-21T23:56:25;96991.00;;;6.14;100.00
